createdAt,value
2019-05-01T00:00:02.240Z,5.89
2019-05-01T00:00:32.308Z,5.89
2019-05-01T00:01:02.248Z,5.90
2019-05-01T00:01:32.314Z,5.89
2019-05-01T00:02:02.241Z,5.90
2019-05-01T00:02:32.301Z,5.89
2019-05-01T00:03:02.278Z,5.89
2019-05-01T00:03:32.299Z,5.86
2019-05-01T00:04:02.236Z,5.85
2019-05-01T00:04:32.301Z,5.85
2019-05-01T00:05:02.247Z,5.85
2019-05-01T00:05:32.297Z,5.88
2019-05-01T00:06:32.301Z,5.80
2019-05-01T00:07:02.280Z,5.84
2019-05-01T00:07:32.305Z,5.79
2019-05-01T00:08:05.278Z,5.80
2019-05-01T00:08:32.302Z,5.78
2019-05-01T00:09:02.254Z,5.79
2019-05-01T00:09:32.301Z,5.76
2019-05-01T00:10:02.252Z,5.76
2019-05-01T00:10:32.304Z,5.75
2019-05-01T00:11:02.251Z,5.73
2019-05-01T00:11:32.302Z,5.70
2019-05-01T00:12:02.253Z,5.72
2019-05-01T00:12:32.309Z,5.70
2019-05-01T00:13:02.243Z,5.69
2019-05-01T00:13:32.344Z,5.68
2019-05-01T00:14:02.244Z,5.66
2019-05-01T00:14:32.297Z,5.66
2019-05-01T00:15:02.248Z,5.65
2019-05-01T00:15:32.306Z,5.65
2019-05-01T00:16:02.250Z,5.61
2019-05-01T00:16:32.317Z,5.63
2019-05-01T00:17:02.253Z,5.59
2019-05-01T00:17:32.305Z,5.61
2019-05-01T00:18:02.246Z,5.58
2019-05-01T00:18:35.181Z,5.58
2019-05-01T00:19:02.245Z,5.54
2019-05-01T00:19:32.306Z,5.58
2019-05-01T00:20:02.250Z,5.55
2019-05-01T00:20:32.302Z,5.52
2019-05-01T00:21:02.240Z,5.51
2019-05-01T00:21:32.311Z,5.51
2019-05-01T00:22:02.243Z,5.48
2019-05-01T00:22:32.454Z,5.50
2019-05-01T00:23:02.254Z,5.45
2019-05-01T00:23:32.313Z,5.47
2019-05-01T00:24:02.302Z,5.47
2019-05-01T00:24:32.305Z,5.45
2019-05-01T00:25:02.254Z,5.45
2019-05-01T00:25:32.305Z,5.41
2019-05-01T00:26:02.255Z,5.44
2019-05-01T00:26:32.307Z,5.41
2019-05-01T00:27:02.249Z,5.41
2019-05-01T00:27:32.307Z,5.40
2019-05-01T00:28:02.261Z,5.38
2019-05-01T00:28:32.321Z,5.38
2019-05-01T00:29:05.119Z,5.37
2019-05-01T00:29:32.300Z,5.37
2019-05-01T00:30:02.247Z,5.37
2019-05-01T00:30:32.310Z,5.35
2019-05-01T00:31:02.252Z,5.35
2019-05-01T00:31:32.305Z,5.35
2019-05-01T00:32:02.250Z,5.34
2019-05-01T00:32:32.316Z,5.34
2019-05-01T00:33:02.248Z,5.37
2019-05-01T00:33:32.309Z,5.37
2019-05-01T00:34:02.246Z,5.38
2019-05-01T00:34:32.337Z,5.37
2019-05-01T00:35:02.245Z,5.37
2019-05-01T00:35:32.301Z,5.40
2019-05-01T00:36:02.250Z,5.35
2019-05-01T00:36:32.303Z,5.37
2019-05-01T00:37:02.246Z,5.37
2019-05-01T00:37:32.311Z,5.37
2019-05-01T00:38:02.253Z,5.35
2019-05-01T00:38:32.414Z,5.34
2019-05-01T00:39:02.247Z,5.33
2019-05-01T00:39:35.247Z,5.35
2019-05-01T00:40:02.242Z,5.34
2019-05-01T00:40:32.315Z,5.33
2019-05-01T00:41:02.249Z,5.30
2019-05-01T00:41:32.313Z,5.30
2019-05-01T00:42:02.256Z,5.28
2019-05-01T00:42:32.306Z,5.27
2019-05-01T00:43:02.270Z,5.28
2019-05-01T00:43:33.469Z,5.28
2019-05-01T00:44:02.249Z,5.26
2019-05-01T00:44:32.309Z,5.30
2019-05-01T00:45:02.275Z,5.28
2019-05-01T00:45:32.353Z,5.31
2019-05-01T00:46:02.254Z,5.31
2019-05-01T00:46:32.311Z,5.33
2019-05-01T00:47:02.255Z,5.34
2019-05-01T00:47:32.316Z,5.33
2019-05-01T00:48:02.254Z,5.37
2019-05-01T00:48:32.311Z,5.34
2019-05-01T00:49:02.255Z,5.38
2019-05-01T00:49:32.311Z,5.37
2019-05-01T00:50:05.224Z,5.37
2019-05-01T00:50:32.309Z,5.34
2019-05-01T00:51:02.247Z,5.33
2019-05-01T00:51:32.321Z,5.31
2019-05-01T00:52:02.249Z,5.31
2019-05-01T00:52:32.313Z,5.34
2019-05-01T00:53:02.257Z,5.31
2019-05-01T00:53:32.419Z,5.31
2019-05-01T00:54:02.259Z,5.33
2019-05-01T00:54:32.310Z,5.28
2019-05-01T00:55:02.258Z,5.30
2019-05-01T00:55:32.455Z,5.31
2019-05-01T00:56:02.250Z,5.30
2019-05-01T00:56:32.311Z,5.31
2019-05-01T00:57:02.263Z,5.31
2019-05-01T00:57:32.329Z,5.34
2019-05-01T00:58:02.254Z,5.34
2019-05-01T00:58:32.313Z,5.34
2019-05-01T00:59:02.259Z,5.34
2019-05-01T00:59:32.348Z,5.34
2019-05-01T01:00:02.249Z,5.35
2019-05-01T01:00:42.764Z,5.37
2019-05-01T01:01:02.262Z,5.38
2019-05-01T01:01:32.353Z,5.38
2019-05-01T01:02:02.259Z,5.38
2019-05-01T01:02:32.311Z,5.41
2019-05-01T01:03:02.259Z,5.41
2019-05-01T01:03:32.313Z,5.41
2019-05-01T01:04:02.278Z,5.42
2019-05-01T01:04:32.315Z,5.42
2019-05-01T01:05:02.256Z,5.44
2019-05-01T01:05:32.311Z,5.44
2019-05-01T01:06:02.280Z,5.44
2019-05-01T01:06:32.319Z,5.45
2019-05-01T01:07:02.259Z,5.47
2019-05-01T01:07:32.314Z,5.47
2019-05-01T01:08:02.260Z,5.48
2019-05-01T01:08:32.313Z,5.50
2019-05-01T01:09:02.272Z,5.51
2019-05-01T01:09:32.315Z,5.54
2019-05-01T01:10:02.270Z,5.54
2019-05-01T01:10:32.310Z,5.54
2019-05-01T01:11:05.198Z,5.54
2019-05-01T01:11:32.320Z,5.54
2019-05-01T01:12:02.262Z,5.55
2019-05-01T01:12:32.319Z,5.57
2019-05-01T01:13:02.265Z,5.58
2019-05-01T01:13:32.314Z,5.58
2019-05-01T01:14:02.315Z,5.57
2019-05-01T01:14:32.318Z,5.57
2019-05-01T01:15:02.261Z,5.57
2019-05-01T01:15:32.312Z,5.57
2019-05-01T01:16:02.274Z,5.59
2019-05-01T01:16:32.361Z,5.58
2019-05-01T01:17:02.261Z,5.59
2019-05-01T01:17:32.318Z,5.59
2019-05-01T01:18:02.259Z,5.57
2019-05-01T01:18:32.352Z,5.62
2019-05-01T01:19:02.257Z,5.63
2019-05-01T01:19:32.323Z,5.61
2019-05-01T01:20:02.259Z,5.61
2019-05-01T01:20:32.355Z,5.59
2019-05-01T01:21:02.261Z,5.57
2019-05-01T01:21:35.205Z,5.58
2019-05-01T01:22:02.255Z,5.58
2019-05-01T01:22:32.358Z,5.57
2019-05-01T01:23:02.262Z,5.54
2019-05-01T01:23:32.310Z,5.51
2019-05-01T01:24:02.259Z,5.50
2019-05-01T01:24:32.322Z,5.51
2019-05-01T01:25:02.414Z,5.47
2019-05-01T01:25:32.321Z,5.48
2019-05-01T01:26:02.257Z,5.42
2019-05-01T01:26:32.335Z,5.42
2019-05-01T01:27:02.284Z,5.42
2019-05-01T01:27:32.319Z,5.42
2019-05-01T01:28:02.263Z,5.42
2019-05-01T01:28:32.337Z,5.44
2019-05-01T01:29:02.273Z,5.40
2019-05-01T01:29:34.769Z,5.42
2019-05-01T01:30:04.824Z,5.42
2019-05-01T01:30:32.324Z,5.41
2019-05-01T01:31:02.289Z,5.41
2019-05-01T01:31:32.319Z,5.34
2019-05-01T01:32:02.258Z,5.38
2019-05-01T01:32:32.324Z,5.35
2019-05-01T01:33:02.272Z,5.35
2019-05-01T01:33:32.316Z,5.35
2019-05-01T01:34:14.707Z,5.33
2019-05-01T01:35:03.283Z,5.27
2019-05-01T01:35:32.327Z,5.27
2019-05-01T01:36:32.409Z,5.23
2019-05-01T01:37:02.350Z,5.23
2019-05-01T01:37:32.323Z,5.21
2019-05-01T01:38:02.261Z,5.21
2019-05-01T01:38:32.319Z,5.23
2019-05-01T01:39:02.264Z,5.21
2019-05-01T01:39:32.319Z,5.21
2019-05-01T01:40:02.269Z,5.19
2019-05-01T01:40:32.318Z,5.20
2019-05-01T01:41:02.264Z,5.21
2019-05-01T01:41:32.324Z,5.19
2019-05-01T01:42:02.261Z,5.19
2019-05-01T01:42:32.336Z,5.20
2019-05-01T01:43:04.377Z,5.17
2019-05-01T01:43:32.322Z,5.17
2019-05-01T01:44:02.269Z,5.13
2019-05-01T01:44:32.367Z,5.14
2019-05-01T01:45:02.267Z,5.13
2019-05-01T01:45:32.320Z,5.13
2019-05-01T01:46:02.263Z,5.13
2019-05-01T01:46:32.319Z,5.14
2019-05-01T01:47:02.400Z,5.16
2019-05-01T01:47:32.353Z,5.14
2019-05-01T01:48:02.268Z,5.12
2019-05-01T01:48:32.326Z,5.13
2019-05-01T01:49:02.265Z,5.16
2019-05-01T01:49:32.379Z,5.19
2019-05-01T01:50:02.264Z,5.16
2019-05-01T01:50:32.319Z,5.17
2019-05-01T01:51:02.263Z,5.13
2019-05-01T01:51:32.319Z,5.16
2019-05-01T01:52:02.258Z,5.14
2019-05-01T01:52:32.321Z,5.16
2019-05-01T01:53:02.265Z,5.17
2019-05-01T01:53:34.089Z,5.17
2019-05-01T01:54:02.265Z,5.17
2019-05-01T01:54:32.320Z,5.16
2019-05-01T01:55:02.268Z,5.17
2019-05-01T01:55:32.327Z,5.14
2019-05-01T01:56:02.266Z,5.17
2019-05-01T01:56:32.323Z,5.16
2019-05-01T01:57:02.265Z,5.16
2019-05-01T01:57:32.330Z,5.16
2019-05-01T01:58:02.289Z,5.13
2019-05-01T01:58:32.327Z,5.12
2019-05-01T01:59:02.270Z,5.10
2019-05-01T01:59:32.333Z,5.10
2019-05-01T02:00:02.262Z,5.07
2019-05-01T02:00:32.320Z,5.04
2019-05-01T02:01:09.162Z,5.03
2019-05-01T02:01:32.327Z,5.02
2019-05-01T02:02:02.267Z,4.99
2019-05-01T02:02:32.330Z,4.99
2019-05-01T02:03:02.267Z,4.96
2019-05-01T02:03:32.329Z,4.94
2019-05-01T02:04:04.427Z,4.94
2019-05-01T02:04:32.324Z,4.90
2019-05-01T02:05:02.272Z,4.90
2019-05-01T02:05:32.333Z,4.89
2019-05-01T02:06:02.269Z,4.86
2019-05-01T02:06:32.330Z,4.86
2019-05-01T02:07:02.270Z,4.85
2019-05-01T02:07:32.324Z,4.82
2019-05-01T02:08:02.273Z,4.80
2019-05-01T02:08:32.326Z,4.77
2019-05-01T02:09:02.265Z,4.80
2019-05-01T02:09:32.486Z,4.77
2019-05-01T02:10:02.268Z,4.76
2019-05-01T02:10:42.545Z,4.73
2019-05-01T02:11:02.275Z,4.72
2019-05-01T02:11:32.328Z,4.72
2019-05-01T02:12:02.285Z,4.72
2019-05-01T02:12:32.324Z,4.71
2019-05-01T02:13:02.272Z,4.69
2019-05-01T02:13:32.347Z,4.69
2019-05-01T02:14:02.274Z,4.68
2019-05-01T02:14:34.110Z,4.65
2019-05-01T02:15:02.284Z,4.65
2019-05-01T02:15:32.326Z,4.64
2019-05-01T02:16:02.270Z,4.64
2019-05-01T02:16:32.328Z,4.62
2019-05-01T02:17:02.280Z,4.62
2019-05-01T02:17:32.330Z,4.65
2019-05-01T02:18:02.272Z,4.66
2019-05-01T02:18:32.354Z,4.68
2019-05-01T02:19:02.271Z,4.68
2019-05-01T02:19:32.339Z,4.71
2019-05-01T02:20:02.282Z,4.71
2019-05-01T02:20:32.339Z,4.71
2019-05-01T02:21:02.274Z,4.69
2019-05-01T02:21:32.339Z,4.73
2019-05-01T02:22:02.282Z,4.73
2019-05-01T02:22:32.334Z,4.75
2019-05-01T02:23:02.274Z,4.73
2019-05-01T02:23:32.327Z,4.75
2019-05-01T02:24:02.272Z,4.75
2019-05-01T02:24:32.338Z,4.73
2019-05-01T02:25:04.139Z,4.72
2019-05-01T02:25:32.332Z,4.69
2019-05-01T02:26:02.276Z,4.71
2019-05-01T02:26:32.336Z,4.68
2019-05-01T02:27:02.273Z,4.68
2019-05-01T02:27:32.328Z,4.65
2019-05-01T02:28:02.272Z,4.66
2019-05-01T02:28:32.334Z,4.65
2019-05-01T02:29:02.387Z,4.65
2019-05-01T02:29:32.330Z,4.62
2019-05-01T02:30:02.281Z,4.64
2019-05-01T02:30:32.336Z,4.62
2019-05-01T02:31:02.336Z,4.62
2019-05-01T02:31:32.339Z,4.64
2019-05-01T02:32:02.272Z,4.62
2019-05-01T02:32:32.343Z,4.64
2019-05-01T02:33:02.278Z,4.64
2019-05-01T02:33:32.324Z,4.64
2019-05-01T02:34:02.281Z,4.69
2019-05-01T02:34:32.328Z,4.72
2019-05-01T02:35:02.294Z,4.72
2019-05-01T02:35:34.124Z,4.73
2019-05-01T02:36:02.276Z,4.75
2019-05-01T02:36:32.335Z,4.76
2019-05-01T02:37:02.282Z,4.80
2019-05-01T02:37:32.356Z,4.83
2019-05-01T02:38:02.274Z,4.86
2019-05-01T02:38:32.334Z,4.92
2019-05-01T02:39:02.271Z,4.96
2019-05-01T02:39:32.344Z,5.00
2019-05-01T02:40:02.272Z,5.04
2019-05-01T02:40:32.333Z,5.04
2019-05-01T02:41:02.282Z,5.06
2019-05-01T02:41:32.332Z,5.10
2019-05-01T02:42:02.277Z,5.12
2019-05-01T02:42:32.339Z,5.13
2019-05-01T02:43:02.281Z,5.14
2019-05-01T02:43:32.377Z,5.17
2019-05-01T02:44:02.279Z,5.20
2019-05-01T02:44:32.355Z,5.20
2019-05-01T02:45:02.288Z,5.21
2019-05-01T02:45:32.376Z,5.23
2019-05-01T02:46:04.173Z,5.26
2019-05-01T02:46:32.333Z,5.21
2019-05-01T02:47:02.279Z,5.23
2019-05-01T02:47:32.351Z,5.27
2019-05-01T02:48:02.280Z,5.27
2019-05-01T02:48:32.368Z,5.28
2019-05-01T02:49:02.275Z,5.30
2019-05-01T02:49:32.335Z,5.28
2019-05-01T02:50:02.284Z,5.30
2019-05-01T02:50:32.364Z,5.33
2019-05-01T02:51:02.297Z,5.30
2019-05-01T02:51:32.340Z,5.33
2019-05-01T02:52:02.280Z,5.34
2019-05-01T02:52:32.342Z,5.34
2019-05-01T02:53:02.281Z,5.38
2019-05-01T02:53:32.340Z,5.38
2019-05-01T02:54:02.275Z,5.44
2019-05-01T02:54:32.364Z,5.45
2019-05-01T02:55:02.281Z,5.48
2019-05-01T02:55:32.342Z,5.48
2019-05-01T02:56:02.276Z,5.50
2019-05-01T02:56:34.121Z,5.52
2019-05-01T02:57:02.286Z,5.54
2019-05-01T02:57:32.346Z,5.55
2019-05-01T02:58:02.285Z,5.59
2019-05-01T02:58:32.343Z,5.62
2019-05-01T02:59:02.277Z,5.65
2019-05-01T02:59:32.344Z,5.68
2019-05-01T03:00:02.327Z,5.69
2019-05-01T03:00:32.343Z,5.72
2019-05-01T03:01:02.281Z,5.75
2019-05-01T03:01:46.099Z,5.78
2019-05-01T03:02:02.297Z,5.76
2019-05-01T03:02:32.343Z,5.79
2019-05-01T03:03:02.285Z,5.82
2019-05-01T03:03:32.339Z,5.85
2019-05-01T03:04:02.291Z,5.86
2019-05-01T03:04:32.337Z,5.88
2019-05-01T03:05:02.289Z,5.92
2019-05-01T03:05:32.346Z,5.93
2019-05-01T03:06:02.297Z,5.93
2019-05-01T03:06:32.347Z,5.93
2019-05-01T03:07:04.095Z,5.96
2019-05-01T03:07:32.349Z,5.97
2019-05-01T03:08:02.289Z,5.97
2019-05-01T03:08:32.346Z,5.97
2019-05-01T03:09:02.284Z,6.03
2019-05-01T03:09:32.340Z,6.02
2019-05-01T03:10:02.295Z,6.02
2019-05-01T03:10:32.338Z,6.05
2019-05-01T03:11:02.283Z,6.06
2019-05-01T03:11:32.337Z,6.06
2019-05-01T03:12:02.285Z,6.06
2019-05-01T03:12:32.476Z,6.09
2019-05-01T03:13:02.286Z,6.10
2019-05-01T03:13:32.351Z,6.09
2019-05-01T03:14:02.285Z,6.12
2019-05-01T03:14:32.341Z,6.14
2019-05-01T03:15:02.284Z,6.10
2019-05-01T03:15:32.546Z,6.13
2019-05-01T03:16:02.284Z,6.16
2019-05-01T03:16:32.348Z,6.13
2019-05-01T03:17:02.289Z,6.14
2019-05-01T03:17:34.102Z,6.14
2019-05-01T03:18:02.283Z,6.16
2019-05-01T03:18:32.340Z,6.18
2019-05-01T03:19:02.281Z,6.23
2019-05-01T03:19:32.343Z,6.23
2019-05-01T03:20:02.290Z,6.24
2019-05-01T03:20:32.339Z,6.26
2019-05-01T03:21:02.297Z,6.27
2019-05-01T03:21:32.349Z,6.31
2019-05-01T03:22:02.294Z,6.30
2019-05-01T03:22:32.346Z,6.33
2019-05-01T03:23:02.298Z,6.36
2019-05-01T03:23:32.343Z,6.37
2019-05-01T03:24:02.285Z,6.37
2019-05-01T03:24:32.344Z,6.37
2019-05-01T03:25:02.309Z,6.36
2019-05-01T03:25:32.339Z,6.40
2019-05-01T03:26:02.288Z,6.40
2019-05-01T03:26:32.345Z,6.38
2019-05-01T03:27:02.300Z,6.38
2019-05-01T03:27:32.350Z,6.41
2019-05-01T03:28:04.099Z,6.43
2019-05-01T03:28:32.398Z,6.40
2019-05-01T03:29:02.285Z,6.41
2019-05-01T03:29:32.349Z,6.44
2019-05-01T03:30:02.293Z,6.40
2019-05-01T03:30:32.341Z,6.41
2019-05-01T03:31:02.313Z,6.44
2019-05-01T03:31:32.436Z,6.44
2019-05-01T03:32:16.417Z,6.41
2019-05-01T03:32:32.345Z,6.45
2019-05-01T03:33:02.299Z,6.44
2019-05-01T03:33:32.348Z,6.43
2019-05-01T03:34:02.310Z,6.44
2019-05-01T03:34:32.348Z,6.45
2019-05-01T03:35:02.463Z,6.44
2019-05-01T03:35:32.351Z,6.47
2019-05-01T03:36:02.295Z,6.48
2019-05-01T03:36:32.350Z,6.48
2019-05-01T03:37:02.292Z,6.49
2019-05-01T03:37:32.361Z,6.51
2019-05-01T03:38:02.295Z,6.48
2019-05-01T03:38:34.100Z,6.52
2019-05-01T03:39:02.288Z,6.52
2019-05-01T03:39:32.351Z,6.54
2019-05-01T03:40:02.290Z,6.52
2019-05-01T03:40:32.351Z,6.56
2019-05-01T03:41:02.289Z,6.55
2019-05-01T03:41:32.352Z,6.54
2019-05-01T03:42:02.287Z,6.55
2019-05-01T03:42:32.342Z,6.55
2019-05-01T03:43:02.300Z,6.56
2019-05-01T03:43:32.361Z,6.56
2019-05-01T03:44:02.290Z,6.55
2019-05-01T03:44:32.353Z,6.60
2019-05-01T03:45:02.297Z,6.60
2019-05-01T03:45:34.242Z,6.61
2019-05-01T03:46:02.290Z,6.60
2019-05-01T03:46:32.387Z,6.61
2019-05-01T03:47:02.299Z,6.61
2019-05-01T03:47:32.349Z,6.61
2019-05-01T03:48:02.292Z,6.62
2019-05-01T03:48:32.366Z,6.62
2019-05-01T03:49:04.097Z,6.61
2019-05-01T03:49:32.353Z,6.64
2019-05-01T03:50:02.301Z,6.64
2019-05-01T03:50:32.352Z,6.64
2019-05-01T03:51:02.291Z,6.68
2019-05-01T03:51:32.350Z,6.64
2019-05-01T03:52:02.297Z,6.67
2019-05-01T03:52:32.353Z,6.65
2019-05-01T03:53:02.294Z,6.68
2019-05-01T03:53:32.345Z,6.69
2019-05-01T03:54:02.299Z,6.67
2019-05-01T03:54:32.356Z,6.67
2019-05-01T03:55:02.291Z,6.68
2019-05-01T03:55:32.366Z,6.67
2019-05-01T03:56:02.452Z,6.69
2019-05-01T03:56:32.346Z,6.71
2019-05-01T03:57:02.294Z,6.69
2019-05-01T03:57:32.359Z,6.68
2019-05-01T03:58:02.290Z,6.69
2019-05-01T03:58:32.350Z,6.68
2019-05-01T03:59:02.291Z,6.68
2019-05-01T03:59:34.100Z,6.69
2019-05-01T04:00:02.295Z,6.68
2019-05-01T04:00:32.356Z,6.69
2019-05-01T04:01:02.298Z,6.72
2019-05-01T04:01:32.348Z,6.69
2019-05-01T04:02:02.343Z,6.72
2019-05-01T04:02:34.316Z,6.72
2019-05-01T04:03:02.292Z,6.72
2019-05-01T04:03:32.363Z,6.72
2019-05-01T04:04:02.303Z,6.72
2019-05-01T04:04:32.353Z,6.74
2019-05-01T04:05:02.299Z,6.74
2019-05-01T04:05:32.358Z,6.72
2019-05-01T04:06:02.299Z,6.72
2019-05-01T04:06:32.355Z,6.72
2019-05-01T04:07:02.301Z,6.71
2019-05-01T04:07:35.949Z,6.72
2019-05-01T04:08:02.301Z,6.72
2019-05-01T04:08:32.357Z,6.71
2019-05-01T04:09:02.299Z,6.71
2019-05-01T04:09:32.353Z,6.69
2019-05-01T04:10:04.432Z,6.68
2019-05-01T04:10:32.354Z,6.68
2019-05-01T04:11:02.301Z,6.71
2019-05-01T04:11:32.351Z,6.69
2019-05-01T04:12:02.295Z,6.68
2019-05-01T04:12:32.355Z,6.68
2019-05-01T04:13:02.333Z,6.68
2019-05-01T04:13:32.355Z,6.67
2019-05-01T04:14:02.303Z,6.67
2019-05-01T04:14:32.356Z,6.67
2019-05-01T04:15:02.302Z,6.68
2019-05-01T04:15:32.357Z,6.68
2019-05-01T04:16:02.293Z,6.71
2019-05-01T04:16:32.359Z,6.69
2019-05-01T04:17:02.387Z,6.69
2019-05-01T04:17:32.657Z,6.68
2019-05-01T04:18:02.298Z,6.72
2019-05-01T04:18:32.359Z,6.72
2019-05-01T04:19:02.306Z,6.74
2019-05-01T04:19:32.356Z,6.71
2019-05-01T04:20:02.300Z,6.75
2019-05-01T04:20:34.089Z,6.74
2019-05-01T04:21:02.300Z,6.74
2019-05-01T04:21:32.362Z,6.75
2019-05-01T04:22:02.316Z,6.76
2019-05-01T04:22:32.356Z,6.75
2019-05-01T04:23:02.310Z,6.74
2019-05-01T04:23:32.373Z,6.75
2019-05-01T04:24:02.298Z,6.75
2019-05-01T04:24:32.360Z,6.75
2019-05-01T04:25:02.302Z,6.74
2019-05-01T04:25:32.365Z,6.76
2019-05-01T04:26:02.307Z,6.76
2019-05-01T04:26:32.358Z,6.78
2019-05-01T04:27:02.307Z,6.78
2019-05-01T04:27:32.361Z,6.79
2019-05-01T04:28:02.299Z,6.76
2019-05-01T04:28:32.365Z,6.78
2019-05-01T04:29:02.293Z,6.79
2019-05-01T04:29:32.353Z,6.81
2019-05-01T04:30:02.306Z,6.79
2019-05-01T04:30:32.368Z,6.79
2019-05-01T04:31:04.232Z,6.82
2019-05-01T04:31:32.366Z,6.81
2019-05-01T04:32:02.301Z,6.83
2019-05-01T04:32:49.944Z,6.83
2019-05-01T04:33:02.302Z,6.83
2019-05-01T04:33:32.367Z,6.83
2019-05-01T04:34:02.304Z,6.83
2019-05-01T04:34:32.363Z,6.81
2019-05-01T04:35:02.308Z,6.83
2019-05-01T04:35:32.361Z,6.79
2019-05-01T04:36:02.302Z,6.79
2019-05-01T04:36:32.360Z,6.79
2019-05-01T04:37:02.302Z,6.83
2019-05-01T04:37:32.355Z,6.82
2019-05-01T04:38:02.422Z,6.81
2019-05-01T04:38:32.516Z,6.83
2019-05-01T04:39:02.305Z,6.78
2019-05-01T04:39:32.371Z,6.79
2019-05-01T04:40:02.304Z,6.78
2019-05-01T04:40:32.367Z,6.76
2019-05-01T04:41:02.304Z,6.78
2019-05-01T04:41:34.093Z,6.78
2019-05-01T04:42:02.309Z,6.75
2019-05-01T04:42:32.370Z,6.78
2019-05-01T04:43:02.309Z,6.75
2019-05-01T04:43:32.360Z,6.76
2019-05-01T04:44:02.302Z,6.76
2019-05-01T04:44:32.360Z,6.78
2019-05-01T04:45:02.303Z,6.76
2019-05-01T04:45:32.365Z,6.76
2019-05-01T04:46:02.302Z,6.79
2019-05-01T04:46:32.366Z,6.79
2019-05-01T04:47:02.308Z,6.79
2019-05-01T04:47:32.365Z,6.79
2019-05-01T04:48:02.304Z,6.79
2019-05-01T04:48:32.366Z,6.81
2019-05-01T04:49:02.305Z,6.81
2019-05-01T04:49:32.364Z,6.82
2019-05-01T04:50:02.301Z,6.82
2019-05-01T04:50:32.375Z,6.82
2019-05-01T04:51:02.305Z,6.82
2019-05-01T04:51:32.364Z,6.82
2019-05-01T04:52:04.198Z,6.83
2019-05-01T04:52:32.373Z,6.85
2019-05-01T04:53:02.316Z,6.83
2019-05-01T04:53:32.393Z,6.83
2019-05-01T04:54:02.311Z,6.83
2019-05-01T04:54:32.405Z,6.83
2019-05-01T04:55:02.315Z,6.83
2019-05-01T04:55:32.370Z,6.86
2019-05-01T04:56:02.309Z,6.88
2019-05-01T04:56:32.368Z,6.85
2019-05-01T04:57:02.307Z,6.89
2019-05-01T04:57:32.363Z,6.88
2019-05-01T04:58:02.297Z,6.86
2019-05-01T04:58:32.365Z,6.89
2019-05-01T04:59:02.308Z,6.89
2019-05-01T04:59:32.521Z,6.88
2019-05-01T05:00:02.306Z,6.89
2019-05-01T05:00:32.364Z,6.91
2019-05-01T05:01:02.318Z,6.92
2019-05-01T05:01:32.363Z,6.91
2019-05-01T05:02:02.307Z,6.92
2019-05-01T05:02:34.387Z,6.93
2019-05-01T05:03:04.699Z,6.92
2019-05-01T05:03:32.360Z,6.93
2019-05-01T05:04:02.318Z,6.95
2019-05-01T05:04:32.360Z,6.93
2019-05-01T05:05:02.373Z,6.95
2019-05-01T05:05:32.383Z,6.98
2019-05-01T05:06:02.310Z,6.95
2019-05-01T05:06:32.362Z,6.96
2019-05-01T05:07:02.312Z,6.98
2019-05-01T05:07:32.364Z,6.98
2019-05-01T05:08:02.318Z,6.99
2019-05-01T05:08:32.382Z,7.02
2019-05-01T05:09:02.366Z,7.00
2019-05-01T05:09:32.366Z,7.03
2019-05-01T05:10:02.304Z,7.00
2019-05-01T05:10:32.377Z,7.02
2019-05-01T05:11:02.307Z,7.00
2019-05-01T05:11:32.372Z,7.02
2019-05-01T05:12:02.309Z,7.00
2019-05-01T05:12:32.374Z,7.03
2019-05-01T05:13:04.096Z,7.03
2019-05-01T05:13:32.364Z,7.03
2019-05-01T05:14:02.300Z,7.00
2019-05-01T05:14:32.363Z,7.00
2019-05-01T05:15:02.313Z,7.04
2019-05-01T05:15:32.366Z,7.00
2019-05-01T05:16:02.312Z,6.99
2019-05-01T05:16:32.367Z,6.99
2019-05-01T05:17:02.309Z,7.00
2019-05-01T05:17:32.369Z,6.99
2019-05-01T05:18:02.306Z,6.98
2019-05-01T05:18:32.370Z,7.00
2019-05-01T05:19:02.311Z,7.02
2019-05-01T05:19:32.368Z,7.00
2019-05-01T05:20:02.310Z,7.04
2019-05-01T05:20:32.378Z,7.02
2019-05-01T05:21:02.318Z,7.00
2019-05-01T05:21:32.367Z,7.03
2019-05-01T05:22:02.308Z,7.02
2019-05-01T05:22:32.369Z,7.06
2019-05-01T05:23:02.311Z,7.04
2019-05-01T05:23:34.118Z,7.04
2019-05-01T05:24:02.310Z,7.06
2019-05-01T05:24:32.402Z,7.07
2019-05-01T05:25:02.311Z,7.06
2019-05-01T05:25:32.372Z,7.07
2019-05-01T05:26:02.314Z,7.09
2019-05-01T05:26:32.370Z,7.06
2019-05-01T05:27:02.309Z,7.04
2019-05-01T05:27:32.380Z,7.07
2019-05-01T05:28:02.319Z,7.06
2019-05-01T05:28:32.376Z,7.06
2019-05-01T05:29:02.314Z,7.03
2019-05-01T05:29:32.374Z,7.06
2019-05-01T05:30:02.317Z,7.06
2019-05-01T05:30:32.371Z,7.04
2019-05-01T05:31:02.312Z,7.04
2019-05-01T05:31:32.375Z,7.04
2019-05-01T05:32:02.316Z,7.04
2019-05-01T05:32:32.368Z,7.02
2019-05-01T05:33:02.310Z,7.02
2019-05-01T05:33:32.370Z,7.04
2019-05-01T05:34:04.099Z,7.02
2019-05-01T05:34:32.364Z,7.00
2019-05-01T05:35:02.319Z,7.00
2019-05-01T05:35:32.375Z,7.00
2019-05-01T05:36:02.365Z,6.99
2019-05-01T05:36:32.386Z,7.02
2019-05-01T05:37:02.328Z,7.03
2019-05-01T05:37:32.377Z,7.02
2019-05-01T05:38:02.312Z,7.02
2019-05-01T05:38:32.379Z,7.02
2019-05-01T05:39:02.318Z,7.03
2019-05-01T05:39:32.372Z,7.03
2019-05-01T05:40:02.353Z,7.04
2019-05-01T05:40:32.374Z,7.04
2019-05-01T05:41:02.311Z,7.04
2019-05-01T05:41:32.377Z,7.02
2019-05-01T05:42:02.308Z,7.03
2019-05-01T05:42:32.371Z,7.06
2019-05-01T05:43:02.468Z,7.06
2019-05-01T05:43:32.376Z,7.04
2019-05-01T05:44:02.313Z,7.06
2019-05-01T05:44:34.119Z,7.09
2019-05-01T05:45:02.315Z,7.09
2019-05-01T05:45:32.377Z,7.09
2019-05-01T05:46:02.319Z,7.09
2019-05-01T05:46:32.371Z,7.12
2019-05-01T05:47:02.316Z,7.16
2019-05-01T05:47:32.371Z,7.14
2019-05-01T05:48:02.320Z,7.14
2019-05-01T05:48:32.372Z,7.14
2019-05-01T05:49:02.315Z,7.13
2019-05-01T05:49:32.379Z,7.13
2019-05-01T05:50:02.324Z,7.12
2019-05-01T05:50:32.375Z,7.10
2019-05-01T05:51:02.326Z,7.10
2019-05-01T05:51:32.380Z,7.09
2019-05-01T05:52:02.323Z,7.12
2019-05-01T05:52:32.372Z,7.07
2019-05-01T05:53:02.321Z,7.10
2019-05-01T05:53:32.382Z,7.09
2019-05-01T05:54:02.313Z,7.04
2019-05-01T05:54:32.375Z,7.06
2019-05-01T05:55:04.103Z,7.06
2019-05-01T05:55:32.376Z,7.04
2019-05-01T05:56:02.321Z,7.03
2019-05-01T05:56:32.383Z,7.03
2019-05-01T05:57:02.329Z,7.04
2019-05-01T05:57:32.372Z,7.03
2019-05-01T05:58:02.325Z,7.07
2019-05-01T05:58:32.386Z,7.06
2019-05-01T05:59:02.325Z,7.07
2019-05-01T05:59:32.377Z,7.06
2019-05-01T06:00:02.320Z,7.06
2019-05-01T06:00:32.393Z,7.06
2019-05-01T06:01:02.339Z,7.07
2019-05-01T06:01:32.377Z,7.07
2019-05-01T06:02:02.325Z,7.04
2019-05-01T06:02:32.385Z,7.04
2019-05-01T06:03:02.317Z,7.06
2019-05-01T06:03:34.825Z,7.04
2019-05-01T06:04:02.323Z,7.03
2019-05-01T06:04:32.375Z,7.03
2019-05-01T06:05:02.468Z,7.04
2019-05-01T06:05:34.190Z,7.04
2019-05-01T06:06:02.318Z,7.06
2019-05-01T06:06:32.396Z,7.03
2019-05-01T06:07:02.319Z,7.02
2019-05-01T06:07:32.386Z,7.02
2019-05-01T06:08:02.337Z,7.00
2019-05-01T06:08:32.375Z,7.04
2019-05-01T06:09:02.335Z,7.02
2019-05-01T06:09:32.382Z,7.02
2019-05-01T06:10:02.406Z,7.06
2019-05-01T06:10:32.371Z,7.04
2019-05-01T06:11:02.342Z,7.04
2019-05-01T06:11:33.868Z,7.04
2019-05-01T06:12:04.802Z,7.02
2019-05-01T06:12:32.389Z,7.04
2019-05-01T06:13:02.322Z,7.06
2019-05-01T06:13:32.387Z,7.04
2019-05-01T06:14:02.327Z,7.04
2019-05-01T06:14:32.528Z,7.04
2019-05-01T06:15:06.273Z,7.06
2019-05-01T06:15:32.381Z,7.06
2019-05-01T06:16:04.288Z,7.07
2019-05-01T06:16:32.387Z,7.10
2019-05-01T06:17:02.328Z,7.07
2019-05-01T06:17:32.374Z,7.07
2019-05-01T06:18:04.013Z,7.10
2019-05-01T06:18:34.706Z,7.09
2019-05-01T06:19:02.323Z,7.10
2019-05-01T06:19:32.377Z,7.09
2019-05-01T06:20:02.325Z,7.06
2019-05-01T06:20:32.390Z,7.06
2019-05-01T06:21:03.796Z,7.03
2019-05-01T06:21:34.588Z,7.03
2019-05-01T06:22:04.835Z,6.99
2019-05-01T06:22:32.383Z,7.00
2019-05-01T06:23:02.334Z,7.00
2019-05-01T06:23:34.212Z,6.99
2019-05-01T06:24:06.439Z,6.99
2019-05-01T06:24:35.663Z,6.95
2019-05-01T06:25:02.327Z,6.95
2019-05-01T06:25:32.390Z,6.95
2019-05-01T06:26:02.760Z,6.96
2019-05-01T06:26:37.200Z,7.00
2019-05-01T06:27:02.327Z,7.02
2019-05-01T06:27:32.381Z,7.04
2019-05-01T06:28:02.329Z,7.04
2019-05-01T06:28:32.380Z,7.06
2019-05-01T06:29:02.335Z,7.04
2019-05-01T06:29:35.692Z,7.06
2019-05-01T06:30:02.332Z,7.09
2019-05-01T06:30:32.386Z,7.09
2019-05-01T06:31:02.327Z,7.12
2019-05-01T06:31:32.387Z,7.14
2019-05-01T06:32:02.347Z,7.14
2019-05-01T06:32:33.405Z,7.16
2019-05-01T06:33:04.012Z,7.13
2019-05-01T06:33:43.776Z,7.16
2019-05-01T06:34:02.321Z,7.14
2019-05-01T06:34:32.381Z,7.16
2019-05-01T06:35:02.967Z,7.17
2019-05-01T06:35:33.862Z,7.19
2019-05-01T06:36:02.345Z,7.17
2019-05-01T06:36:32.387Z,7.20
2019-05-01T06:37:04.493Z,7.20
2019-05-01T06:37:32.381Z,7.24
2019-05-01T06:38:02.445Z,7.21
2019-05-01T06:38:36.092Z,7.20
2019-05-01T06:39:02.331Z,7.19
2019-05-01T06:39:32.387Z,7.19
2019-05-01T06:40:02.335Z,7.20
2019-05-01T06:40:32.389Z,7.20